Terrebonne, OR

7:03 AM PDT on July 30, 2016 (GMT -0700)
| | Change Station
Active Advisory: Fire Weather Warning

Elev -9999 ft 0.00 °N, 0.00 °E | Updated

Clear
Clear
68 °F
Feels Like 68 °F
N
6
Wind Variable Wind from SSW
Gusts mph

Today
High -- | Low -- °F
--% Chance of Precip.
Yesterday
High -- | Low -- °F
Precip. -- in
Pressure 29.87 in
Visibility 10.0 miles
Clouds Clear
Dew Point 47 °F
Humidity 46%
Rainfall --
Snow Depth Not available.
5:50 AM 8:31 PM
Waning Crescent, 13% visible
METAR KRDM 301356Z 16004KT 10SM CLR 15/06 A2997 RMK AO2 SLP115 T01500061
Pressure 29.87 in
Visibility 10.0 miles
Clouds Clear
Dew Point 47 °F
Humidity 46%
Rainfall --
Snow Depth Not available.
5:50 AM 8:31 PM
Waning Crescent, 13% visible
METAR KRDM 301356Z 16004KT 10SM CLR 15/06 A2997 RMK AO2 SLP115 T01500061

10-Day Weather Forecast

Almanac

Astronomy

Jul. 30, 2016 Rise Set
Actual Time
Civil Twilight
Nautical Twilight
Astronomical Twilight
Moon
Length of Visible Light
Length of Day
Tomorrow will be .
, % of the Moon is Illuminated

Today's Extremes

State Highs State Lows

Community

WunderPhotos

Upload Photos

1,928,564 photos uploaded!

WunderBlog® & News

Nearby

Air Quality

  Air Quality AQ Index Pollutant
Not available.

Snow Depth

Station Depth Elevation

Earthquake Activity

City Distance Mag. Time & Date
Minimum magnitude displayed is 2.5.

Coastal Water Temperatures

Place Temperature

Stations

Nearby Weather Stations

Station Location Temp. Windchill Dew Point Humidity Wind Precip. Elev Updated Type
                   

Watches & Warnings

Fire Weather Warning
Issued: 2:23 PM PDT Jul. 29, 2016 – National Weather Service

... Red flag warning remains in effect until 9 PM PDT Saturday for
gusty winds and low humidity...

* affected area... in Washington and Oregon... fire zone 639
covering most of Klickitat County and the eastern Columbia
River gorge. In Oregon... fire zone 610 covering the east
slopes of the northern Oregon Cascades.

* Timing... winds will increase late this afternoon and evening
and will be stronger on Saturday.

* Wind... west to northwest wind 10 to 20 mph late today and 15
to 25 mph on Saturday. The strongest winds will be through the
Columbia River gorge where gusts to 35 mph are expected.

* Humidity... 12 to 22 percent.

* Impacts... any fires that develop will likely spread rapidly.
Outdoor burning is not recommended.

Precautionary/preparedness actions...

A red flag warning means that critical fire weather conditions
are either occurring now... .or will shortly. A combination of
strong winds... low relative humidity... and warm temperatures can
contribute to extreme fire behavior.